createdAt,value
2019-02-14T00:00:00.310Z,16.27
2019-02-14T00:02:24.799Z,16.93
2019-02-14T00:04:49.203Z,15.83
2019-02-14T00:07:13.721Z,16.63
2019-02-14T00:09:38.224Z,17.47
2019-02-14T00:12:02.660Z,17.00
2019-02-14T00:14:27.077Z,16.30
2019-02-14T00:16:51.557Z,16.60
2019-02-14T00:19:15.999Z,16.37
2019-02-14T00:21:40.418Z,16.13
2019-02-14T00:24:04.935Z,16.43
2019-02-14T00:26:29.331Z,16.47
2019-02-14T00:28:53.769Z,17.20
2019-02-14T00:31:18.255Z,17.03
2019-02-14T00:33:42.707Z,16.10
2019-02-14T00:36:07.177Z,15.90
2019-02-14T00:38:31.625Z,16.37
2019-02-14T00:40:56.036Z,15.83
2019-02-14T00:43:20.470Z,16.00
2019-02-14T00:45:44.874Z,17.00
2019-02-14T00:48:09.295Z,16.87
2019-02-14T00:50:33.728Z,16.40
2019-02-14T00:52:58.154Z,17.40
2019-02-14T00:55:22.594Z,16.90
2019-02-14T00:57:47.001Z,16.83
2019-02-14T01:00:11.938Z,16.37
2019-02-14T01:02:36.347Z,16.97
2019-02-14T01:05:00.778Z,18.20
2019-02-14T01:07:25.191Z,17.27
2019-02-14T01:09:49.620Z,16.00
2019-02-14T01:12:14.104Z,17.93
2019-02-14T01:14:38.538Z,17.53
2019-02-14T01:17:02.949Z,17.60
2019-02-14T01:19:27.395Z,17.17
2019-02-14T01:21:51.811Z,17.53
2019-02-14T01:24:16.212Z,19.40
2019-02-14T01:26:40.648Z,17.10
2019-02-14T01:29:05.205Z,18.07
2019-02-14T01:31:29.654Z,17.37
2019-02-14T01:33:54.067Z,18.20
2019-02-14T01:36:18.586Z,18.67
2019-02-14T01:38:43.007Z,17.63
2019-02-14T01:41:07.451Z,17.33
2019-02-14T01:43:31.846Z,17.70
2019-02-14T01:45:56.287Z,19.07
2019-02-14T01:48:20.697Z,18.23
2019-02-14T01:50:45.131Z,19.40
2019-02-14T01:53:09.536Z,19.10
2019-02-14T01:55:33.976Z,18.67
2019-02-14T01:57:58.437Z,18.83
2019-02-14T02:00:23.280Z,18.30
2019-02-14T02:02:47.737Z,19.20
2019-02-14T02:05:12.219Z,19.00
2019-02-14T02:07:36.667Z,17.90
2019-02-14T02:10:01.070Z,18.30
2019-02-14T02:12:25.494Z,18.77
2019-02-14T02:14:49.906Z,19.00
2019-02-14T02:17:14.334Z,20.03
2019-02-14T02:19:38.736Z,18.83
2019-02-14T02:22:03.251Z,20.73
2019-02-14T02:24:27.657Z,20.57
2019-02-14T02:26:52.080Z,19.83
2019-02-14T02:29:16.494Z,20.90
2019-02-14T02:31:40.939Z,19.70
2019-02-14T02:34:05.424Z,20.93
2019-02-14T02:36:29.862Z,19.90
2019-02-14T02:38:54.344Z,19.57
2019-02-14T02:41:18.750Z,20.37
2019-02-14T02:43:43.180Z,19.73
2019-02-14T02:46:07.677Z,19.80
2019-02-14T02:48:32.148Z,20.00
2019-02-14T02:50:56.553Z,20.43
2019-02-14T02:53:20.985Z,21.33
2019-02-14T02:55:45.410Z,20.73
2019-02-14T02:58:09.843Z,19.60
2019-02-14T03:00:34.243Z,20.63
2019-02-14T03:02:58.676Z,20.83
2019-02-14T03:05:23.087Z,21.47
2019-02-14T03:07:47.606Z,20.40
2019-02-14T03:10:13.601Z,21.17
2019-02-14T03:12:37.975Z,21.40
2019-02-14T03:15:02.405Z,22.30
2019-02-14T03:17:26.803Z,21.13
2019-02-14T03:19:51.231Z,21.73
2019-02-14T03:22:15.638Z,22.03
2019-02-14T03:24:40.065Z,22.77
2019-02-14T03:27:04.535Z,23.47
2019-02-14T03:29:28.959Z,22.50
2019-02-14T03:31:53.361Z,22.53
2019-02-14T03:34:17.793Z,23.33
2019-02-14T03:36:42.195Z,23.07
2019-02-14T03:39:07.175Z,22.27
2019-02-14T03:41:31.582Z,23.67
2019-02-14T03:43:56.014Z,25.77
2019-02-14T03:46:20.491Z,24.80
2019-02-14T03:48:44.892Z,23.00
2019-02-14T03:51:09.394Z,23.40
2019-02-14T03:53:33.799Z,23.17
2019-02-14T03:55:58.373Z,23.93
2019-02-14T03:58:22.775Z,23.10
2019-02-14T04:00:47.311Z,23.80
2019-02-14T04:03:11.734Z,23.87
2019-02-14T04:05:36.178Z,24.47
2019-02-14T04:08:00.579Z,24.53
2019-02-14T04:10:25.021Z,23.03
2019-02-14T04:12:49.432Z,22.80
2019-02-14T04:15:16.240Z,23.77
2019-02-14T04:17:40.755Z,23.40
2019-02-14T04:20:07.127Z,23.93
2019-02-14T04:22:31.528Z,23.00
2019-02-14T04:24:55.945Z,22.23
2019-02-14T04:27:20.373Z,22.97
2019-02-14T04:29:44.782Z,20.70
2019-02-14T04:32:09.216Z,22.70
2019-02-14T04:34:33.621Z,22.10
2019-02-14T04:36:58.056Z,22.53
2019-02-14T04:39:22.475Z,20.67
2019-02-14T04:41:46.917Z,20.23
2019-02-14T04:44:11.329Z,22.47
2019-02-14T04:46:35.760Z,22.13
2019-02-14T04:49:00.170Z,22.80
2019-02-14T04:51:24.614Z,22.17
2019-02-14T04:53:49.031Z,23.37
2019-02-14T04:56:13.433Z,23.13
2019-02-14T04:58:37.855Z,22.73
2019-02-14T05:01:02.270Z,23.33
2019-02-14T05:03:26.705Z,23.37
2019-02-14T05:05:51.106Z,23.27
2019-02-14T05:08:15.537Z,23.00
2019-02-14T05:10:39.936Z,23.80
2019-02-14T05:13:04.439Z,23.87
2019-02-14T05:15:28.849Z,24.77
2019-02-14T05:17:53.280Z,24.80
2019-02-14T05:20:17.682Z,24.73
2019-02-14T05:22:42.123Z,25.63
2019-02-14T05:25:08.280Z,25.07
2019-02-14T05:27:32.713Z,24.97
2019-02-14T05:29:57.126Z,24.63
2019-02-14T05:32:21.546Z,25.03
2019-02-14T05:34:45.976Z,24.20
2019-02-14T05:37:10.389Z,23.77
2019-02-14T05:39:34.817Z,23.93
2019-02-14T05:41:59.295Z,25.43
2019-02-14T05:44:23.808Z,25.90
2019-02-14T05:46:48.206Z,26.87
2019-02-14T05:49:12.643Z,26.33
2019-02-14T05:51:37.053Z,24.93
2019-02-14T05:54:01.480Z,26.47
2019-02-14T05:56:25.884Z,26.33
2019-02-14T05:58:50.328Z,26.40
2019-02-14T06:01:16.380Z,25.67
2019-02-14T06:03:40.817Z,27.13
2019-02-14T06:06:05.288Z,25.87
2019-02-14T06:08:29.721Z,24.97
2019-02-14T06:10:54.203Z,25.83
2019-02-14T06:13:18.623Z,25.27
2019-02-14T06:15:43.072Z,24.87
2019-02-14T06:18:07.470Z,25.60
2019-02-14T06:20:31.899Z,25.10
2019-02-14T06:22:56.383Z,24.40
2019-02-14T06:25:20.898Z,24.20
2019-02-14T06:27:45.325Z,25.50
2019-02-14T06:30:14.558Z,24.70
2019-02-14T06:32:38.956Z,24.43
2019-02-14T06:35:03.573Z,24.67
2019-02-14T06:37:27.986Z,23.33
2019-02-14T06:39:52.424Z,23.63
2019-02-14T06:42:16.836Z,22.60
2019-02-14T06:44:41.268Z,24.47
2019-02-14T06:47:05.697Z,24.50
2019-02-14T06:49:30.112Z,23.10
2019-02-14T06:51:54.531Z,23.53
2019-02-14T06:54:18.971Z,23.87
2019-02-14T06:56:43.367Z,25.63
2019-02-14T06:59:07.775Z,24.17
2019-02-14T07:01:32.204Z,25.03
2019-02-14T07:03:56.667Z,24.30
2019-02-14T07:06:21.111Z,25.07
2019-02-14T07:08:45.526Z,24.70
2019-02-14T07:11:10.029Z,25.93
2019-02-14T07:13:34.429Z,25.17
2019-02-14T07:15:58.858Z,25.90
2019-02-14T07:18:23.265Z,24.90
2019-02-14T07:20:47.700Z,23.70
2019-02-14T07:23:12.092Z,24.37
2019-02-14T07:25:36.580Z,25.50
2019-02-14T07:28:01.009Z,23.60
2019-02-14T07:30:27.623Z,24.00
2019-02-14T07:32:52.123Z,26.40
2019-02-14T07:35:16.538Z,25.93
2019-02-14T07:37:40.970Z,25.97
2019-02-14T07:40:12.998Z,24.50
2019-02-14T07:42:37.456Z,25.20
2019-02-14T07:45:01.896Z,25.50
2019-02-14T07:47:26.466Z,25.13
2019-02-14T07:49:50.944Z,23.97
2019-02-14T07:52:15.379Z,23.90
2019-02-14T07:54:39.800Z,22.70
2019-02-14T07:57:04.208Z,23.93
2019-02-14T07:59:28.652Z,22.90
2019-02-14T08:01:53.063Z,22.30
2019-02-14T08:04:17.504Z,23.77
2019-02-14T08:06:42.066Z,23.13
2019-02-14T08:09:06.577Z,22.17
2019-02-14T08:11:30.995Z,21.90
2019-02-14T08:13:55.458Z,21.50
2019-02-14T08:16:19.864Z,21.57
2019-02-14T08:18:44.282Z,21.57
2019-02-14T08:21:08.703Z,21.53
2019-02-14T08:23:33.213Z,21.77
2019-02-14T08:25:57.635Z,20.03
2019-02-14T08:28:22.073Z,19.97
2019-02-14T08:30:46.477Z,19.70
2019-02-14T08:33:10.893Z,20.17
2019-02-14T08:35:35.320Z,20.70
2019-02-14T08:37:59.733Z,20.97
2019-02-14T08:40:34.039Z,19.97
2019-02-14T08:42:58.835Z,21.03
2019-02-14T08:45:23.257Z,19.03
2019-02-14T08:47:49.279Z,19.20
2019-02-14T08:50:13.778Z,19.17
2019-02-14T08:52:38.194Z,19.50
2019-02-14T08:55:02.633Z,19.83
2019-02-14T08:57:27.032Z,19.10
2019-02-14T08:59:51.474Z,19.83
2019-02-14T09:02:15.906Z,19.43
2019-02-14T09:04:40.360Z,18.90
2019-02-14T09:07:04.841Z,18.23
2019-02-14T09:09:29.277Z,18.20
2019-02-14T09:11:53.715Z,18.23
2019-02-14T09:14:18.169Z,18.37
2019-02-14T09:16:42.601Z,18.60
2019-02-14T09:19:07.816Z,18.53
2019-02-14T09:21:32.250Z,17.73
2019-02-14T09:23:56.664Z,18.17
2019-02-14T09:26:21.176Z,17.57
2019-02-14T09:28:45.586Z,17.60
2019-02-14T09:31:10.011Z,17.47
2019-02-14T09:33:34.413Z,17.53
2019-02-14T09:35:58.850Z,17.97
2019-02-14T09:38:23.271Z,17.07
2019-02-14T09:40:47.727Z,17.07
2019-02-14T09:43:12.127Z,17.20
2019-02-14T09:45:37.441Z,17.70
2019-02-14T09:48:01.879Z,16.90
2019-02-14T09:50:26.354Z,17.33
2019-02-14T09:52:50.803Z,18.37
2019-02-14T09:55:15.227Z,16.53
2019-02-14T09:57:39.731Z,16.77
2019-02-14T10:00:05.812Z,16.30
2019-02-14T10:02:30.263Z,17.40
2019-02-14T10:04:54.678Z,18.17
2019-02-14T10:07:19.111Z,17.17
2019-02-14T10:09:43.524Z,17.50
2019-02-14T10:12:07.951Z,17.60
2019-02-14T10:14:32.372Z,17.00
2019-02-14T10:16:56.821Z,15.13
2019-02-14T10:19:21.249Z,16.10
2019-02-14T10:21:45.655Z,15.93
2019-02-14T10:24:10.098Z,16.17
2019-02-14T10:26:34.517Z,15.03
2019-02-14T10:28:59.018Z,15.17
2019-02-14T10:31:23.415Z,15.77
2019-02-14T10:33:47.875Z,15.63
2019-02-14T10:36:12.287Z,15.10
2019-02-14T10:38:36.724Z,15.33
2019-02-14T10:41:01.139Z,14.37
2019-02-14T10:43:25.594Z,14.53
2019-02-14T10:45:50.082Z,16.03
2019-02-14T10:48:14.534Z,14.67
2019-02-14T10:50:39.025Z,14.47
2019-02-14T10:53:03.495Z,13.53
2019-02-14T10:55:27.950Z,14.50
2019-02-14T10:57:52.350Z,14.23
2019-02-14T11:00:22.428Z,14.67
2019-02-14T11:02:47.280Z,14.37
2019-02-14T11:05:12.072Z,13.53
2019-02-14T11:35:33.896Z,8.93
2019-02-14T11:38:15.885Z,9.30
2019-02-14T11:40:58.095Z,9.43
2019-02-14T11:43:21.692Z,9.73
2019-02-14T11:45:46.142Z,9.97
2019-02-14T11:48:10.564Z,10.07
2019-02-14T11:50:34.993Z,10.33
2019-02-14T11:52:59.400Z,9.67
2019-02-14T11:55:23.982Z,9.17
2019-02-14T11:57:48.489Z,8.80
2019-02-14T12:00:22.781Z,7.50
2019-02-14T12:02:54.997Z,8.67
2019-02-14T14:22:47.926Z,6.53
2019-02-14T14:25:32.628Z,6.70
2019-02-14T14:28:14.215Z,6.07
2019-02-14T14:30:38.738Z,5.93
2019-02-14T14:33:03.132Z,6.30
2019-02-14T14:35:27.642Z,5.97
2019-02-14T14:37:52.042Z,4.80
2019-02-14T14:40:17.925Z,5.70
2019-02-14T14:42:52.590Z,4.53
2019-02-14T14:45:18.670Z,4.97
2019-02-14T14:47:43.084Z,4.40
2019-02-14T14:50:08.445Z,3.60
2019-02-14T14:52:32.874Z,4.10
2019-02-14T14:54:57.289Z,4.20
2019-02-14T14:57:21.720Z,3.70
2019-02-14T14:59:46.144Z,3.67
2019-02-14T15:02:10.652Z,5.10
2019-02-14T15:04:35.058Z,5.67
2019-02-14T15:06:59.515Z,4.10
2019-02-14T15:09:23.931Z,5.50
2019-02-14T15:11:48.527Z,7.27
2019-02-14T15:14:12.955Z,5.90
2019-02-14T15:16:37.369Z,6.10
2019-02-14T15:19:01.863Z,6.80
2019-02-14T15:21:26.284Z,6.70
2019-02-14T15:23:50.735Z,6.87
2019-02-14T15:26:15.227Z,6.33
2019-02-14T15:28:39.686Z,4.80
2019-02-14T15:31:04.179Z,7.80
2019-02-14T15:33:28.706Z,12.00
2019-02-14T15:35:53.101Z,11.10
2019-02-14T15:38:17.634Z,14.43
2019-02-14T15:40:42.126Z,7.80
2019-02-14T15:43:06.660Z,6.57
2019-02-14T15:45:31.086Z,7.13
2019-02-14T15:47:55.568Z,7.10
2019-02-14T15:50:20.028Z,4.80
2019-02-14T15:52:44.440Z,4.53
2019-02-14T15:55:09.010Z,5.80
2019-02-14T15:57:33.498Z,6.60
2019-02-14T15:59:57.951Z,6.87
2019-02-14T16:02:22.367Z,8.10
2019-02-14T16:04:46.837Z,5.50
2019-02-14T16:07:13.171Z,5.87
2019-02-14T16:09:38.877Z,4.20
2019-02-14T16:12:03.674Z,6.20
2019-02-14T16:14:28.123Z,6.87
2019-02-14T16:16:52.538Z,5.73
2019-02-14T16:19:17.003Z,4.67
2019-02-14T16:21:41.534Z,3.70
2019-02-14T16:24:05.941Z,3.20
2019-02-14T16:26:30.400Z,3.50
2019-02-14T16:28:54.837Z,3.40
2019-02-14T16:31:19.367Z,6.00
2019-02-14T16:33:43.897Z,4.60
2019-02-14T16:36:08.433Z,4.57
2019-02-14T16:38:33.565Z,4.63
2019-02-14T16:40:59.027Z,4.33
2019-02-14T16:43:23.502Z,3.47
2019-02-14T16:45:47.957Z,3.43
2019-02-14T16:48:12.526Z,3.90
2019-02-14T16:50:36.943Z,3.57
2019-02-14T16:53:01.367Z,4.00
2019-02-14T16:55:25.899Z,4.77
2019-02-14T16:57:50.397Z,4.70
2019-02-14T17:00:15.049Z,5.10
2019-02-14T17:02:39.500Z,4.77
2019-02-14T17:05:04.148Z,4.63
2019-02-14T17:07:28.589Z,4.10
2019-02-14T17:09:53.074Z,4.30
2019-02-14T17:12:17.516Z,4.40
2019-02-14T17:14:41.944Z,3.83
2019-02-14T17:17:06.395Z,3.60
2019-02-14T17:19:30.887Z,4.10
2019-02-14T17:21:55.349Z,5.20
2019-02-14T17:24:19.752Z,5.33
2019-02-14T17:26:44.184Z,5.20
2019-02-14T17:29:08.635Z,5.20
2019-02-14T17:31:33.082Z,5.40
2019-02-14T17:33:57.493Z,5.50
2019-02-14T17:36:21.972Z,5.33
2019-02-14T17:38:46.493Z,4.80
2019-02-14T17:41:10.918Z,4.70
2019-02-14T17:43:35.437Z,4.00
2019-02-14T17:45:59.944Z,3.10
2019-02-14T17:48:24.708Z,3.17
2019-02-14T17:50:50.577Z,3.27
2019-02-14T17:53:15.112Z,2.93
2019-02-14T17:55:39.622Z,9.47
2019-02-14T17:58:04.064Z,15.40
2019-02-14T18:00:29.657Z,15.23
2019-02-14T18:02:54.101Z,9.83
2019-02-14T18:05:18.587Z,7.77
2019-02-14T18:07:43.057Z,7.30
2019-02-14T18:10:10.621Z,5.87
2019-02-14T18:12:35.043Z,4.20
2019-02-14T18:14:59.482Z,4.30
2019-02-14T18:17:23.960Z,4.83
2019-02-14T18:19:48.448Z,4.20
2019-02-14T18:22:12.977Z,5.20
2019-02-14T18:24:37.441Z,4.20
2019-02-14T18:27:01.918Z,3.50
2019-02-14T18:29:26.384Z,4.83
2019-02-14T18:31:50.897Z,4.30
2019-02-14T18:34:15.360Z,4.33
2019-02-14T18:36:39.855Z,5.30
2019-02-14T18:39:05.847Z,6.00
2019-02-14T18:41:30.260Z,5.20
2019-02-14T18:43:54.746Z,4.83
2019-02-14T18:46:19.158Z,5.03
2019-02-14T18:48:43.575Z,6.70
2019-02-14T18:51:08.031Z,4.13
2019-02-14T18:53:32.443Z,4.43
2019-02-14T18:55:56.908Z,4.30
2019-02-14T18:58:26.474Z,3.70
2019-02-14T19:00:47.661Z,3.67
2019-02-14T19:03:12.141Z,4.10
2019-02-14T19:05:36.647Z,4.60
2019-02-14T19:08:01.106Z,5.63
2019-02-14T19:10:25.557Z,5.80
2019-02-14T19:12:49.963Z,5.17
2019-02-14T19:15:14.885Z,5.57
2019-02-14T19:17:39.380Z,5.67
2019-02-14T19:20:04.589Z,6.17
2019-02-14T19:22:29.099Z,6.23
2019-02-14T19:24:53.584Z,8.63
2019-02-14T19:27:18.086Z,4.30
2019-02-14T19:29:42.493Z,4.03
2019-02-14T19:32:06.936Z,3.70
2019-02-14T19:34:31.343Z,4.00
2019-02-14T19:36:55.807Z,3.70
2019-02-14T19:39:20.240Z,3.57
2019-02-14T19:41:44.675Z,3.60
2019-02-14T19:44:09.078Z,3.93
2019-02-14T19:46:33.525Z,4.67
2019-02-14T19:48:57.946Z,3.90
2019-02-14T19:51:22.399Z,4.27
2019-02-14T19:53:46.818Z,4.93
2019-02-14T19:56:11.255Z,4.70
2019-02-14T19:58:35.654Z,5.10
2019-02-14T20:01:00.086Z,5.50
2019-02-14T20:03:24.622Z,5.50
2019-02-14T20:05:49.116Z,4.43
2019-02-14T20:08:13.600Z,4.70
2019-02-14T20:10:38.085Z,4.63
2019-02-14T20:13:02.572Z,4.67
2019-02-14T20:15:36.415Z,5.50
2019-02-14T20:17:53.245Z,5.53
2019-02-14T20:20:17.656Z,5.80
2019-02-14T20:22:42.167Z,6.80
2019-02-14T20:25:15.490Z,6.07
2019-02-14T20:27:39.986Z,6.53
2019-02-14T20:30:06.694Z,6.80
2019-02-14T20:32:31.145Z,7.30
2019-02-14T20:34:55.558Z,6.37
2019-02-14T20:37:19.976Z,7.43
2019-02-14T20:39:44.409Z,8.17
2019-02-14T20:42:08.886Z,6.57
2019-02-14T20:44:34.867Z,6.87
2019-02-14T20:46:59.365Z,7.10
2019-02-14T20:49:23.805Z,8.03
2019-02-14T20:51:48.298Z,7.80
2019-02-14T20:54:12.754Z,8.47
2019-02-14T20:56:37.155Z,8.80
2019-02-14T20:59:01.615Z,7.33
2019-02-14T21:01:26.090Z,7.87
2019-02-14T21:03:50.535Z,7.13
2019-02-14T21:06:15.028Z,7.43
2019-02-14T21:08:39.532Z,7.97
2019-02-14T21:11:04.005Z,7.33
2019-02-14T21:13:28.615Z,8.50
2019-02-14T21:15:53.086Z,8.10
2019-02-14T21:18:17.533Z,7.23
2019-02-14T21:20:42.001Z,6.63
2019-02-14T21:23:06.427Z,6.37
2019-02-14T21:25:30.833Z,6.23
2019-02-14T21:27:55.239Z,6.70
2019-02-14T21:30:20.723Z,6.20
2019-02-14T21:32:45.189Z,7.93
2019-02-14T21:35:09.858Z,6.93
2019-02-14T21:37:34.343Z,6.90
2019-02-14T21:39:58.771Z,6.93
2019-02-14T21:42:29.089Z,8.33
2019-02-14T21:44:49.372Z,8.30
2019-02-14T21:47:13.794Z,7.77
2019-02-14T21:49:38.233Z,9.30
2019-02-14T21:52:02.673Z,7.30
2019-02-14T21:54:27.076Z,6.83
2019-02-14T21:56:51.490Z,7.37
2019-02-14T21:59:15.895Z,8.93
2019-02-14T22:01:40.329Z,9.93
2019-02-14T22:04:04.910Z,10.03
2019-02-14T22:06:29.369Z,10.63
2019-02-14T22:08:53.864Z,9.33
2019-02-14T22:11:18.397Z,9.77
2019-02-14T22:13:42.882Z,11.40
2019-02-14T22:16:07.383Z,9.30
2019-02-14T22:18:31.794Z,10.40
2019-02-14T22:20:56.234Z,12.80
2019-02-14T22:23:20.665Z,13.23
2019-02-14T22:25:45.075Z,12.50
2019-02-14T22:28:09.533Z,10.90
2019-02-14T22:30:33.954Z,10.87
2019-02-14T22:32:58.382Z,11.17
2019-02-14T22:35:22.798Z,11.60
2019-02-14T22:37:47.319Z,10.17
2019-02-14T22:40:12.770Z,9.80
2019-02-14T22:42:46.194Z,10.00
2019-02-14T22:45:03.652Z,9.90
2019-02-14T22:47:28.084Z,10.27
2019-02-14T22:49:52.496Z,10.03
2019-02-14T22:52:16.966Z,8.07
2019-02-14T22:54:41.370Z,7.73
2019-02-14T22:57:05.808Z,7.10
2019-02-14T22:59:30.297Z,8.27
2019-02-14T23:01:54.859Z,8.53
2019-02-14T23:04:19.286Z,8.27
2019-02-14T23:06:43.696Z,7.23
2019-02-14T23:09:08.883Z,7.07
2019-02-14T23:11:33.349Z,7.17
2019-02-14T23:13:57.781Z,6.83
2019-02-14T23:16:22.332Z,6.57
2019-02-14T23:18:46.753Z,7.20
2019-02-14T23:21:11.225Z,7.00
2019-02-14T23:23:35.659Z,7.37
2019-02-14T23:26:00.073Z,7.07
2019-02-14T23:28:24.504Z,8.17
2019-02-14T23:30:48.903Z,7.73
2019-02-14T23:33:13.425Z,7.47
2019-02-14T23:35:37.832Z,7.63
2019-02-14T23:38:02.244Z,8.90
2019-02-14T23:40:26.743Z,8.20
2019-02-14T23:42:51.209Z,7.80
2019-02-14T23:45:15.642Z,8.83
2019-02-14T23:47:40.047Z,8.00
2019-02-14T23:50:06.835Z,7.27
2019-02-14T23:52:31.230Z,7.90
2019-02-14T23:54:55.677Z,8.03
2019-02-14T23:57:20.068Z,8.10
2019-02-14T23:59:44.483Z,7.87
